Terminal Aerodrome Forecast
Issued by NWS

Home | Current Version | Previous Version | Text Only | Print | Product List | Glossary On
Versions: 1 2 3 4 5 6 7 8 9 10 11 12 13 14 15 16 17 18
000
FTUS45 KVEF 011723
TAFDAG
TAF
KDAG 011723Z 0118/0218 28011KT P6SM FEW250
     FM012000 06007KT P6SM FEW150
     FM020200 24011KT P6SM FEW150
     FM020600 27010KT P6SM FEW150=

USA.gov is the U.S. government's official web portal to all federal, state and local government web resources and services.